sensor_id;sensor_type;location;lat;lon;timestamp;pressure;altitude;pressure_sealevel;temperature;humidity
34241;BME280;20503;50.200;19.508;2023-06-19T00:01:18;100048.32;;;12.93;100.00
34241;BME280;20503;50.200;19.508;2023-06-19T00:06:26;100047.45;;;12.92;100.00
34241;BME280;20503;50.200;19.508;2023-06-19T00:11:33;100039.55;;;12.83;100.00
34241;BME280;20503;50.200;19.508;2023-06-19T00:16:41;100024.93;;;12.79;100.00
34241;BME280;20503;50.200;19.508;2023-06-19T00:21:49;99994.90;;;12.61;100.00
34241;BME280;20503;50.200;19.508;2023-06-19T00:26:57;99959.47;;;12.35;100.00
34241;BME280;20503;50.200;19.508;2023-06-19T00:32:05;99961.34;;;12.38;100.00
34241;BME280;20503;50.200;19.508;2023-06-19T00:37:13;99958.86;;;12.37;100.00
34241;BME280;20503;50.200;19.508;2023-06-19T00:42:20;99973.04;;;12.45;100.00
34241;BME280;20503;50.200;19.508;2023-06-19T00:47:28;99969.05;;;12.45;100.00
34241;BME280;20503;50.200;19.508;2023-06-19T00:52:36;99964.02;;;12.42;100.00
34241;BME280;20503;50.200;19.508;2023-06-19T00:57:45;99967.19;;;12.42;100.00
34241;BME280;20503;50.200;19.508;2023-06-19T01:02:51;99953.01;;;12.33;100.00
34241;BME280;20503;50.200;19.508;2023-06-19T01:08:10;99946.35;;;12.29;100.00
34241;BME280;20503;50.200;19.508;2023-06-19T01:13:19;99952.36;;;12.35;100.00
34241;BME280;20503;50.200;19.508;2023-06-19T01:18:22;99957.20;;;12.36;100.00
34241;BME280;20503;50.200;19.508;2023-06-19T01:23:27;99968.85;;;12.43;100.00
34241;BME280;20503;50.200;19.508;2023-06-19T01:28:29;99960.52;;;12.38;100.00
34241;BME280;20503;50.200;19.508;2023-06-19T01:33:38;99968.48;;;12.38;100.00
34241;BME280;20503;50.200;19.508;2023-06-19T01:38:46;99947.16;;;12.30;100.00
34241;BME280;20503;50.200;19.508;2023-06-19T01:43:53;99940.75;;;12.19;100.00
34241;BME280;20503;50.200;19.508;2023-06-19T01:49:00;99926.13;;;12.15;100.00
34241;BME280;20503;50.200;19.508;2023-06-19T01:54:08;99883.80;;;11.92;100.00
34241;BME280;20503;50.200;19.508;2023-06-19T01:59:15;99875.48;;;11.87;100.00
34241;BME280;20503;50.200;19.508;2023-06-19T02:04:23;99869.64;;;11.83;100.00
34241;BME280;20503;50.200;19.508;2023-06-19T02:09:31;99887.14;;;11.94;100.00
34241;BME280;20503;50.200;19.508;2023-06-19T02:14:38;99896.97;;;11.97;100.00
34241;BME280;20503;50.200;19.508;2023-06-19T02:19:46;99874.84;;;11.89;100.00
34241;BME280;20503;50.200;19.508;2023-06-19T02:24:54;99872.77;;;11.83;100.00
34241;BME280;20503;50.200;19.508;2023-06-19T02:30:01;99889.83;;;11.98;100.00
34241;BME280;20503;50.200;19.508;2023-06-19T02:35:09;99888.16;;;11.97;100.00
34241;BME280;20503;50.200;19.508;2023-06-19T02:40:16;99878.98;;;11.91;100.00
34241;BME280;20503;50.200;19.508;2023-06-19T02:45:24;99861.12;;;11.76;100.00
34241;BME280;20503;50.200;19.508;2023-06-19T02:50:31;99811.45;;;11.51;100.00
34241;BME280;20503;50.200;19.508;2023-06-19T02:55:39;99830.66;;;11.62;100.00
34241;BME280;20503;50.200;19.508;2023-06-19T03:00:47;99862.98;;;11.79;100.00
34241;BME280;20503;50.200;19.508;2023-06-19T03:05:54;99882.80;;;11.89;100.00
34241;BME280;20503;50.200;19.508;2023-06-19T03:11:03;99919.46;;;12.11;100.00
34241;BME280;20503;50.200;19.508;2023-06-19T03:16:09;99917.15;;;12.12;100.00
34241;BME280;20503;50.200;19.508;2023-06-19T03:21:17;99925.47;;;12.17;100.00
34241;BME280;20503;50.200;19.508;2023-06-19T03:26:25;99948.46;;;12.26;100.00
34241;BME280;20503;50.200;19.508;2023-06-19T03:31:33;99945.49;;;12.29;100.00
34241;BME280;20503;50.200;19.508;2023-06-19T03:36:40;99980.52;;;12.50;100.00
34241;BME280;20503;50.200;19.508;2023-06-19T03:41:48;99981.57;;;12.53;100.00
34241;BME280;20503;50.200;19.508;2023-06-19T03:46:55;100011.39;;;12.68;100.00
34241;BME280;20503;50.200;19.508;2023-06-19T03:52:03;100059.98;;;13.00;100.00
34241;BME280;20503;50.200;19.508;2023-06-19T03:57:11;100165.63;;;13.58;100.00
34241;BME280;20503;50.200;19.508;2023-06-19T04:02:19;100241.65;;;14.03;100.00
34241;BME280;20503;50.200;19.508;2023-06-19T04:07:27;100297.84;;;14.39;100.00
34241;BME280;20503;50.200;19.508;2023-06-19T04:12:35;100387.45;;;14.95;100.00
34241;BME280;20503;50.200;19.508;2023-06-19T04:17:42;100479.49;;;15.50;100.00
34241;BME280;20503;50.200;19.508;2023-06-19T04:22:50;100597.46;;;16.20;100.00
34241;BME280;20503;50.200;19.508;2023-06-19T04:27:59;100808.79;;;17.48;100.00
34241;BME280;20503;50.200;19.508;2023-06-19T04:33:06;100995.61;;;18.57;100.00
34241;BME280;20503;50.200;19.508;2023-06-19T04:38:14;101141.70;;;19.44;100.00
34241;BME280;20503;50.200;19.508;2023-06-19T04:43:21;101211.22;;;19.83;100.00
34241;BME280;20503;50.200;19.508;2023-06-19T04:48:29;101290.92;;;20.28;100.00
34241;BME280;20503;50.200;19.508;2023-06-19T04:53:37;101420.56;;;21.07;100.00
34241;BME280;20503;50.200;19.508;2023-06-19T04:58:45;101488.87;;;21.50;100.00
34241;BME280;20503;50.200;19.508;2023-06-19T05:03:54;101707.74;;;22.80;100.00
34241;BME280;20503;50.200;19.508;2023-06-19T05:09:00;101739.78;;;22.99;71.56
34241;BME280;20503;50.200;19.508;2023-06-19T05:14:09;101692.61;;;22.71;74.44
34241;BME280;20503;50.200;19.508;2023-06-19T05:19:16;101693.42;;;22.71;73.16
34241;BME280;20503;50.200;19.508;2023-06-19T05:24:24;101703.55;;;22.77;70.99
34241;BME280;20503;50.200;19.508;2023-06-19T05:29:32;101723.76;;;22.89;69.96
34241;BME280;20503;50.200;19.508;2023-06-19T05:34:39;101975.66;;;24.36;65.06
34241;BME280;20503;50.200;19.508;2023-06-19T05:39:46;102086.70;;;25.08;62.35
34241;BME280;20503;50.200;19.508;2023-06-19T05:44:54;102283.01;;;26.17;53.15
34241;BME280;20503;50.200;19.508;2023-06-19T05:50:02;102443.64;;;27.12;51.23
34241;BME280;20503;50.200;19.508;2023-06-19T05:55:10;102640.95;;;28.31;47.76
34241;BME280;20503;50.200;19.508;2023-06-19T06:00:17;102646.88;;;28.34;47.42
34241;BME280;20503;50.200;19.508;2023-06-19T06:05:26;102649.70;;;28.41;46.24
34241;BME280;20503;50.200;19.508;2023-06-19T06:10:33;102772.05;;;29.06;45.91
34241;BME280;20503;50.200;19.508;2023-06-19T06:15:40;102711.18;;;28.72;43.06
34241;BME280;20503;50.200;19.508;2023-06-19T06:20:48;102867.23;;;29.66;40.86
34241;BME280;20503;50.200;19.508;2023-06-19T06:25:55;102901.83;;;29.84;39.11
34241;BME280;20503;50.200;19.508;2023-06-19T06:31:03;103227.59;;;31.76;36.44
34241;BME280;20503;50.200;19.508;2023-06-19T06:36:11;103032.41;;;30.61;36.87
34241;BME280;20503;50.200;19.508;2023-06-19T06:41:19;103079.91;;;30.89;37.70
34241;BME280;20503;50.200;19.508;2023-06-19T06:46:26;103016.27;;;30.52;38.89
34241;BME280;20503;50.200;19.508;2023-06-19T06:51:34;102882.31;;;29.73;39.34
34241;BME280;20503;50.200;19.508;2023-06-19T06:56:42;103006.95;;;30.46;40.47
34241;BME280;20503;50.200;19.508;2023-06-19T07:01:49;103016.99;;;30.50;38.71
34241;BME280;20503;50.200;19.508;2023-06-19T07:06:57;102911.01;;;29.87;38.89
34241;BME280;20503;50.200;19.508;2023-06-19T07:12:05;103177.49;;;31.46;38.22
34241;BME280;20503;50.200;19.508;2023-06-19T07:17:12;103170.14;;;31.47;37.07
34241;BME280;20503;50.200;19.508;2023-06-19T07:22:20;103171.44;;;31.40;37.63
34241;BME280;20503;50.200;19.508;2023-06-19T07:27:28;102887.71;;;29.81;40.67
34241;BME280;20503;50.200;19.508;2023-06-19T07:32:35;103130.95;;;31.22;38.54
34241;BME280;20503;50.200;19.508;2023-06-19T07:37:44;103387.95;;;32.68;34.12
34241;BME280;20503;50.200;19.508;2023-06-19T07:47:13;103524.94;;;33.50;33.17
34241;BME280;20503;50.200;19.508;2023-06-19T07:52:20;103046.83;;;30.70;37.22
34241;BME280;20503;50.200;19.508;2023-06-19T07:57:28;103388.97;;;32.71;34.67
34241;BME280;20503;50.200;19.508;2023-06-19T08:02:35;103617.86;;;34.10;31.95
34241;BME280;20503;50.200;19.508;2023-06-19T08:07:43;103716.43;;;34.65;31.86
34241;BME280;20503;50.200;19.508;2023-06-19T08:12:50;102957.80;;;30.17;37.78
34241;BME280;20503;50.200;19.508;2023-06-19T08:17:58;102463.94;;;27.24;42.82
34241;BME280;20503;50.200;19.508;2023-06-19T08:23:06;102398.40;;;26.93;45.13
34241;BME280;20503;50.200;19.508;2023-06-19T08:28:13;102355.70;;;26.60;46.54
34241;BME280;20503;50.200;19.508;2023-06-19T08:33:21;102639.22;;;28.30;43.63
34241;BME280;20503;50.200;19.508;2023-06-19T08:38:30;103179.04;;;31.45;37.02
34241;BME280;20503;50.200;19.508;2023-06-19T08:43:37;103156.29;;;31.34;35.51
34241;BME280;20503;50.200;19.508;2023-06-19T08:48:45;103359.92;;;32.51;33.01
34241;BME280;20503;50.200;19.508;2023-06-19T08:54:02;103194.47;;;31.56;35.35
34241;BME280;20503;50.200;19.508;2023-06-19T08:59:13;103428.03;;;32.94;32.17
34241;BME280;20503;50.200;19.508;2023-06-19T09:04:15;103728.36;;;34.72;29.85
34241;BME280;20503;50.200;19.508;2023-06-19T09:09:19;103186.11;;;31.54;34.33
34241;BME280;20503;50.200;19.508;2023-06-19T09:19:36;103001.15;;;30.45;36.21
34241;BME280;20503;50.200;19.508;2023-06-19T09:24:40;102990.84;;;30.37;35.56
34241;BME280;20503;50.200;19.508;2023-06-19T09:29:50;102634.85;;;28.25;40.73
34241;BME280;20503;50.200;19.508;2023-06-19T09:34:56;102492.54;;;27.38;43.61
34241;BME280;20503;50.200;19.508;2023-06-19T09:40:06;102300.79;;;26.28;43.88
34241;BME280;20503;50.200;19.508;2023-06-19T09:45:12;102265.28;;;26.07;45.90
34241;BME280;20503;50.200;19.508;2023-06-19T09:50:22;102269.52;;;26.09;45.22
34241;BME280;20503;50.200;19.508;2023-06-19T09:55:29;102582.81;;;28.01;42.93
34241;BME280;20503;50.200;19.508;2023-06-19T10:00:35;102771.35;;;29.08;38.80
34241;BME280;20503;50.200;19.508;2023-06-19T10:05:43;102767.81;;;29.03;37.44
34241;BME280;20503;50.200;19.508;2023-06-19T10:10:50;102518.20;;;27.58;40.55
34241;BME280;20503;50.200;19.508;2023-06-19T10:15:58;102448.02;;;27.17;42.79
34241;BME280;20503;50.200;19.508;2023-06-19T10:21:21;102435.17;;;27.07;41.72
34241;BME280;20503;50.200;19.508;2023-06-19T10:26:18;102348.97;;;26.56;42.81
34241;BME280;20503;50.200;19.508;2023-06-19T10:31:22;102362.47;;;26.64;44.31
34241;BME280;20503;50.200;19.508;2023-06-19T10:36:30;102328.80;;;26.47;44.13
34241;BME280;20503;50.200;19.508;2023-06-19T10:41:39;102457.19;;;27.20;44.98
34241;BME280;20503;50.200;19.508;2023-06-19T10:46:46;102634.30;;;28.29;40.52
34241;BME280;20503;50.200;19.508;2023-06-19T10:51:55;102609.73;;;28.15;37.96
34241;BME280;20503;50.200;19.508;2023-06-19T10:57:06;102734.20;;;28.88;36.50
34241;BME280;20503;50.200;19.508;2023-06-19T11:02:10;102686.50;;;28.55;38.07
34241;BME280;20503;50.200;19.508;2023-06-19T11:07:18;102556.46;;;27.83;38.29
34241;BME280;20503;50.200;19.508;2023-06-19T11:12:27;102635.83;;;28.28;38.66
34241;BME280;20503;50.200;19.508;2023-06-19T11:17:35;102604.55;;;28.09;41.87
34241;BME280;20503;50.200;19.508;2023-06-19T11:22:43;102650.26;;;28.36;38.13
34241;BME280;20503;50.200;19.508;2023-06-19T11:27:51;102764.58;;;29.04;37.75
34241;BME280;20503;50.200;19.508;2023-06-19T11:32:59;102811.00;;;29.28;36.97
34241;BME280;20503;50.200;19.508;2023-06-19T11:38:07;102857.77;;;29.58;34.12
34241;BME280;20503;50.200;19.508;2023-06-19T11:48:29;102719.80;;;28.80;36.20
34241;BME280;20503;50.200;19.508;2023-06-19T11:53:31;102610.61;;;28.15;40.20
34241;BME280;20503;50.200;19.508;2023-06-19T11:58:39;102568.98;;;27.88;39.32
34241;BME280;20503;50.200;19.508;2023-06-19T12:03:47;102557.98;;;27.82;41.06
34241;BME280;20503;50.200;19.508;2023-06-19T12:08:56;102549.70;;;27.79;40.63
34241;BME280;20503;50.200;19.508;2023-06-19T12:14:04;102452.26;;;27.19;39.31
34241;BME280;20503;50.200;19.508;2023-06-19T12:19:11;102597.63;;;28.03;39.30
34241;BME280;20503;50.200;19.508;2023-06-19T12:24:19;102641.62;;;28.29;40.26
34241;BME280;20503;50.200;19.508;2023-06-19T12:29:26;102504.67;;;27.50;41.32
34241;BME280;20503;50.200;19.508;2023-06-19T12:34:33;102437.89;;;27.11;41.46
34241;BME280;20503;50.200;19.508;2023-06-19T12:39:41;102516.50;;;27.57;38.32
34241;BME280;20503;50.200;19.508;2023-06-19T12:44:48;102590.99;;;28.01;39.21
34241;BME280;20503;50.200;19.508;2023-06-19T12:49:56;102519.92;;;27.59;40.39
34241;BME280;20503;50.200;19.508;2023-06-19T12:55:04;102365.84;;;26.66;42.73
34241;BME280;20503;50.200;19.508;2023-06-19T13:00:12;102425.00;;;27.01;43.06
34241;BME280;20503;50.200;19.508;2023-06-19T13:05:19;102518.08;;;27.56;41.61
34241;BME280;20503;50.200;19.508;2023-06-19T13:10:26;102640.22;;;28.33;38.73
34241;BME280;20503;50.200;19.508;2023-06-19T13:15:33;102529.06;;;27.62;39.31
34241;BME280;20503;50.200;19.508;2023-06-19T13:20:41;102421.79;;;27.02;40.35
34241;BME280;20503;50.200;19.508;2023-06-19T13:25:49;102431.09;;;27.07;42.15
34241;BME280;20503;50.200;19.508;2023-06-19T13:30:57;102399.96;;;26.91;41.95
34241;BME280;20503;50.200;19.508;2023-06-19T13:36:04;102390.06;;;26.76;41.41
34241;BME280;20503;50.200;19.508;2023-06-19T13:41:12;102476.77;;;27.34;41.34
34241;BME280;20503;50.200;19.508;2023-06-19T13:46:20;102464.11;;;27.26;41.08
34241;BME280;20503;50.200;19.508;2023-06-19T13:51:28;102354.86;;;26.60;41.51
34241;BME280;20503;50.200;19.508;2023-06-19T13:56:35;102431.79;;;27.05;41.41
34241;BME280;20503;50.200;19.508;2023-06-19T14:01:43;102430.10;;;27.04;41.91
34241;BME280;20503;50.200;19.508;2023-06-19T14:06:51;102449.59;;;27.16;41.78
34241;BME280;20503;50.200;19.508;2023-06-19T14:11:59;102465.65;;;27.25;43.37
34241;BME280;20503;50.200;19.508;2023-06-19T14:17:07;102407.42;;;26.93;42.89
34241;BME280;20503;50.200;19.508;2023-06-19T14:22:15;102357.41;;;26.61;42.66
34241;BME280;20503;50.200;19.508;2023-06-19T14:27:23;102418.25;;;26.97;42.81
34241;BME280;20503;50.200;19.508;2023-06-19T14:32:31;102449.41;;;27.13;43.56
34241;BME280;20503;50.200;19.508;2023-06-19T14:37:39;102443.64;;;27.12;43.15
34241;BME280;20503;50.200;19.508;2023-06-19T14:42:46;102394.59;;;26.83;42.14
34241;BME280;20503;50.200;19.508;2023-06-19T14:47:54;102385.31;;;26.78;42.83
34241;BME280;20503;50.200;19.508;2023-06-19T14:53:02;102366.00;;;26.69;42.04
34241;BME280;20503;50.200;19.508;2023-06-19T14:58:09;102439.58;;;27.12;40.45
34241;BME280;20503;50.200;19.508;2023-06-19T15:03:17;102424.34;;;27.03;40.41
34241;BME280;20503;50.200;19.508;2023-06-19T15:08:24;102436.20;;;27.10;39.66
34241;BME280;20503;50.200;19.508;2023-06-19T15:13:32;102416.56;;;26.96;41.20
34241;BME280;20503;50.200;19.508;2023-06-19T15:18:40;102254.29;;;26.00;45.54
34241;BME280;20503;50.200;19.508;2023-06-19T15:23:46;102232.36;;;25.87;46.21
34241;BME280;20503;50.200;19.508;2023-06-19T15:28:54;102218.09;;;25.81;47.54
34241;BME280;20503;50.200;19.508;2023-06-19T15:34:01;102206.98;;;25.72;47.64
34241;BME280;20503;50.200;19.508;2023-06-19T15:39:09;102181.79;;;25.60;47.99
34241;BME280;20503;50.200;19.508;2023-06-19T15:44:17;102161.69;;;25.50;48.74
34241;BME280;20503;50.200;19.508;2023-06-19T15:49:24;102146.34;;;25.39;47.59
34241;BME280;20503;50.200;19.508;2023-06-19T15:54:32;102194.16;;;25.62;48.27
34241;BME280;20503;50.200;19.508;2023-06-19T15:59:39;102179.12;;;25.56;48.09
34241;BME280;20503;50.200;19.508;2023-06-19T16:04:47;102175.57;;;25.51;46.92
34241;BME280;20503;50.200;19.508;2023-06-19T16:09:54;102215.27;;;25.75;48.03
34241;BME280;20503;50.200;19.508;2023-06-19T16:15:02;102137.74;;;25.31;51.40
34241;BME280;20503;50.200;19.508;2023-06-19T16:20:10;102118.49;;;25.22;50.66
34241;BME280;20503;50.200;19.508;2023-06-19T16:25:17;102112.39;;;25.16;51.56
34241;BME280;20503;50.200;19.508;2023-06-19T16:30:25;102105.64;;;25.12;51.83
34241;BME280;20503;50.200;19.508;2023-06-19T16:35:32;102122.56;;;25.22;50.89
34241;BME280;20503;50.200;19.508;2023-06-19T16:40:40;102093.84;;;25.06;50.85
34241;BME280;20503;50.200;19.508;2023-06-19T16:45:47;102124.55;;;25.28;50.40
34241;BME280;20503;50.200;19.508;2023-06-19T16:50:55;102087.76;;;25.00;51.26
34241;BME280;20503;50.200;19.508;2023-06-19T16:56:03;102092.98;;;25.05;52.13
34241;BME280;20503;50.200;19.508;2023-06-19T17:01:10;102066.84;;;24.90;50.69
34241;BME280;20503;50.200;19.508;2023-06-19T17:06:18;102079.63;;;25.00;50.71
34241;BME280;20503;50.200;19.508;2023-06-19T17:11:25;102082.02;;;24.99;50.90
34241;BME280;20503;50.200;19.508;2023-06-19T17:16:33;102053.48;;;24.84;50.65
34241;BME280;20503;50.200;19.508;2023-06-19T17:21:41;102047.27;;;24.76;51.30
34241;BME280;20503;50.200;19.508;2023-06-19T17:26:48;102017.90;;;24.61;51.82
34241;BME280;20503;50.200;19.508;2023-06-19T17:31:57;101986.63;;;24.42;52.61
34241;BME280;20503;50.200;19.508;2023-06-19T17:37:03;101971.61;;;24.36;53.87
34241;BME280;20503;50.200;19.508;2023-06-19T17:42:11;101966.42;;;24.30;53.98
34241;BME280;20503;50.200;19.508;2023-06-19T17:47:18;101933.52;;;24.11;53.90
34241;BME280;20503;50.200;19.508;2023-06-19T17:52:26;101904.16;;;23.96;55.13
34241;BME280;20503;50.200;19.508;2023-06-19T17:57:33;101875.47;;;23.79;57.07
34241;BME280;20503;50.200;19.508;2023-06-19T18:02:42;101827.27;;;23.48;58.42
34241;BME280;20503;50.200;19.508;2023-06-19T18:07:49;101776.02;;;23.20;59.19
34241;BME280;20503;50.200;19.508;2023-06-19T18:12:57;101732.02;;;22.92;59.72
34241;BME280;20503;50.200;19.508;2023-06-19T18:18:05;101668.16;;;22.56;61.27
34241;BME280;20503;50.200;19.508;2023-06-19T18:23:13;101602.30;;;22.15;63.08
34241;BME280;20503;50.200;19.508;2023-06-19T18:28:21;101563.42;;;21.89;63.51
34241;BME280;20503;50.200;19.508;2023-06-19T18:33:29;101549.29;;;21.83;63.48
34241;BME280;20503;50.200;19.508;2023-06-19T18:38:37;101534.30;;;21.77;63.66
34241;BME280;20503;50.200;19.508;2023-06-19T18:43:45;101532.45;;;21.73;63.96
34241;BME280;20503;50.200;19.508;2023-06-19T18:48:54;101515.64;;;21.63;64.46
34241;BME280;20503;50.200;19.508;2023-06-19T18:54:02;101491.19;;;21.49;64.76
34241;BME280;20503;50.200;19.508;2023-06-19T18:59:10;101455.05;;;21.27;65.84
34241;BME280;20503;50.200;19.508;2023-06-19T19:04:17;101455.05;;;21.27;65.37
34241;BME280;20503;50.200;19.508;2023-06-19T19:09:25;101455.73;;;21.25;65.00
34241;BME280;20503;50.200;19.508;2023-06-19T19:14:33;101429.95;;;21.15;64.46
34241;BME280;20503;50.200;19.508;2023-06-19T19:19:42;101423.06;;;21.08;65.25
34241;BME280;20503;50.200;19.508;2023-06-19T19:24:50;101414.67;;;21.03;66.65
34241;BME280;20503;50.200;19.508;2023-06-19T19:29:57;101354.78;;;20.66;69.15
34241;BME280;20503;50.200;19.508;2023-06-19T19:35:06;101263.67;;;20.19;69.30
34241;BME280;20503;50.200;19.508;2023-06-19T19:40:12;101271.91;;;20.21;69.82
34241;BME280;20503;50.200;19.508;2023-06-19T19:45:20;101269.21;;;20.17;70.41
34241;BME280;20503;50.200;19.508;2023-06-19T19:50:30;101212.91;;;19.84;73.14
34241;BME280;20503;50.200;19.508;2023-06-19T19:55:35;101155.13;;;19.52;77.23
34241;BME280;20503;50.200;19.508;2023-06-19T20:00:42;101118.69;;;19.25;79.55
34241;BME280;20503;50.200;19.508;2023-06-19T20:05:51;101097.67;;;19.13;80.44
34241;BME280;20503;50.200;19.508;2023-06-19T20:10:57;101067.45;;;18.95;80.80
34241;BME280;20503;50.200;19.508;2023-06-19T20:16:08;101049.80;;;18.85;81.75
34241;BME280;20503;50.200;19.508;2023-06-19T20:21:13;101015.43;;;18.64;82.84
34241;BME280;20503;50.200;19.508;2023-06-19T20:26:23;100975.49;;;18.45;84.84
34241;BME280;20503;50.200;19.508;2023-06-19T20:31:29;100971.11;;;18.40;85.03
34241;BME280;20503;50.200;19.508;2023-06-19T20:36:37;100940.89;;;18.22;86.51
34241;BME280;20503;50.200;19.508;2023-06-19T20:41:45;100917.58;;;18.11;87.46
34241;BME280;20503;50.200;19.508;2023-06-19T20:46:52;100924.77;;;18.10;87.06
34241;BME280;20503;50.200;19.508;2023-06-19T20:52:00;100888.90;;;17.91;89.91
34241;BME280;20503;50.200;19.508;2023-06-19T20:57:08;100878.17;;;17.87;90.21
34241;BME280;20503;50.200;19.508;2023-06-19T21:02:19;100880.33;;;17.84;89.70
34241;BME280;20503;50.200;19.508;2023-06-19T21:07:24;100911.35;;;18.02;86.95
34241;BME280;20503;50.200;19.508;2023-06-19T21:12:31;100965.89;;;18.35;83.70
34241;BME280;20503;50.200;19.508;2023-06-19T21:17:39;101093.79;;;19.15;77.05
34241;BME280;20503;50.200;19.508;2023-06-19T21:22:47;101196.09;;;19.74;73.14
34241;BME280;20503;50.200;19.508;2023-06-19T21:27:54;101131.42;;;19.35;76.03
34241;BME280;20503;50.200;19.508;2023-06-19T21:33:02;101014.76;;;18.66;80.15
34241;BME280;20503;50.200;19.508;2023-06-19T21:38:10;100939.03;;;18.19;83.50
34241;BME280;20503;50.200;19.508;2023-06-19T21:43:18;101002.30;;;18.61;80.06
34241;BME280;20503;50.200;19.508;2023-06-19T21:48:26;101121.37;;;19.29;75.65
34241;BME280;20503;50.200;19.508;2023-06-19T21:53:33;101017.76;;;18.75;78.41
34241;BME280;20503;50.200;19.508;2023-06-19T21:58:41;100932.51;;;18.17;82.54
34241;BME280;20503;50.200;19.508;2023-06-19T22:03:48;100878.17;;;17.87;84.90
34241;BME280;20503;50.200;19.508;2023-06-19T22:08:56;100936.35;;;18.15;83.23
34241;BME280;20503;50.200;19.508;2023-06-19T22:14:04;100820.16;;;17.50;87.59
34241;BME280;20503;50.200;19.508;2023-06-19T22:19:12;100747.38;;;17.09;91.89
34241;BME280;20503;50.200;19.508;2023-06-19T22:24:19;100782.88;;;17.23;93.16
34241;BME280;20503;50.200;19.508;2023-06-19T22:29:27;101030.02;;;18.78;80.98
34241;BME280;20503;50.200;19.508;2023-06-19T22:34:35;101180.98;;;19.65;74.78
34241;BME280;20503;50.200;19.508;2023-06-19T22:39:42;101204.52;;;19.79;73.44
34241;BME280;20503;50.200;19.508;2023-06-19T22:44:49;101199.44;;;19.76;73.25
34241;BME280;20503;50.200;19.508;2023-06-19T22:49:57;101146.73;;;19.47;74.27
34241;BME280;20503;50.200;19.508;2023-06-19T22:55:05;100967.76;;;18.38;79.55
34241;BME280;20503;50.200;19.508;2023-06-19T23:00:13;100806.07;;;17.44;86.55
34241;BME280;20503;50.200;19.508;2023-06-19T23:05:20;100751.41;;;17.09;90.68
34241;BME280;20503;50.200;19.508;2023-06-19T23:10:28;100740.34;;;17.01;92.25
34241;BME280;20503;50.200;19.508;2023-06-19T23:15:35;100706.85;;;16.81;95.25
34241;BME280;20503;50.200;19.508;2023-06-19T23:20:43;100692.60;;;16.72;97.13
34241;BME280;20503;50.200;19.508;2023-06-19T23:25:51;100788.10;;;17.29;93.12
34241;BME280;20503;50.200;19.508;2023-06-19T23:30:59;100952.83;;;18.32;83.07
34241;BME280;20503;50.200;19.508;2023-06-19T23:36:07;100805.05;;;17.41;87.96
34241;BME280;20503;50.200;19.508;2023-06-19T23:41:14;100703.00;;;16.83;97.85
34241;BME280;20503;50.200;19.508;2023-06-19T23:46:22;100935.52;;;18.14;84.47
34241;BME280;20503;50.200;19.508;2023-06-19T23:51:29;100925.96;;;18.16;83.22
34241;BME280;20503;50.200;19.508;2023-06-19T23:56:37;100766.31;;;17.16;89.96
